sensor_id;sensor_type;location;lat;lon;timestamp;P1;durP1;ratioP1;P2;durP2;ratioP2
49978;SDS011;35869;50.990;6.962;2023-05-10T00:04:19;24.17;;;13.52;;
49978;SDS011;35869;50.990;6.962;2023-05-10T00:09:19;23.48;;;13.35;;
49978;SDS011;35869;50.990;6.962;2023-05-10T00:14:19;13.93;;;11.18;;
49978;SDS011;35869;50.990;6.962;2023-05-10T00:19:19;29.50;;;16.88;;
49978;SDS011;35869;50.990;6.962;2023-05-10T00:24:19;24.80;;;14.32;;
49978;SDS011;35869;50.990;6.962;2023-05-10T00:29:20;29.95;;;17.05;;
49978;SDS011;35869;50.990;6.962;2023-05-10T00:34:20;28.65;;;15.85;;
49978;SDS011;35869;50.990;6.962;2023-05-10T00:39:20;19.50;;;13.90;;
49978;SDS011;35869;50.990;6.962;2023-05-10T00:44:20;23.00;;;15.38;;
49978;SDS011;35869;50.990;6.962;2023-05-10T00:49:21;20.20;;;14.00;;
49978;SDS011;35869;50.990;6.962;2023-05-10T00:54:21;31.08;;;17.00;;
49978;SDS011;35869;50.990;6.962;2023-05-10T00:59:21;28.25;;;18.63;;
49978;SDS011;35869;50.990;6.962;2023-05-10T01:04:21;22.50;;;15.00;;
49978;SDS011;35869;50.990;6.962;2023-05-10T01:09:22;30.35;;;19.98;;
49978;SDS011;35869;50.990;6.962;2023-05-10T01:19:24;32.83;;;19.73;;
49978;SDS011;35869;50.990;6.962;2023-05-10T01:35:05;26.98;;;16.67;;
49978;SDS011;35869;50.990;6.962;2023-05-10T01:40:13;36.95;;;22.48;;
49978;SDS011;35869;50.990;6.962;2023-05-10T01:45:34;14.38;;;11.15;;
49978;SDS011;35869;50.990;6.962;2023-05-10T01:50:40;12.85;;;8.93;;
49978;SDS011;35869;50.990;6.962;2023-05-10T01:55:45;13.93;;;9.80;;
49978;SDS011;35869;50.990;6.962;2023-05-10T02:00:47;15.15;;;9.20;;
49978;SDS011;35869;50.990;6.962;2023-05-10T02:05:50;10.90;;;7.28;;
49978;SDS011;35869;50.990;6.962;2023-05-10T02:10:54;14.13;;;8.02;;
49978;SDS011;35869;50.990;6.962;2023-05-10T02:15:55;17.98;;;10.57;;
49978;SDS011;35869;50.990;6.962;2023-05-10T02:20:57;17.98;;;8.68;;
49978;SDS011;35869;50.990;6.962;2023-05-10T02:25:58;12.02;;;7.18;;
49978;SDS011;35869;50.990;6.962;2023-05-10T02:31:01;8.32;;;6.22;;
49978;SDS011;35869;50.990;6.962;2023-05-10T02:41:02;15.18;;;8.20;;
49978;SDS011;35869;50.990;6.962;2023-05-10T02:46:05;10.38;;;7.47;;
49978;SDS011;35869;50.990;6.962;2023-05-10T02:51:06;13.20;;;9.18;;
49978;SDS011;35869;50.990;6.962;2023-05-10T02:56:12;14.35;;;8.75;;
49978;SDS011;35869;50.990;6.962;2023-05-10T03:01:19;17.55;;;10.00;;
49978;SDS011;35869;50.990;6.962;2023-05-10T03:06:19;27.90;;;13.65;;
49978;SDS011;35869;50.990;6.962;2023-05-10T03:16:46;14.38;;;10.18;;
49978;SDS011;35869;50.990;6.962;2023-05-10T03:21:56;20.08;;;13.35;;
49978;SDS011;35869;50.990;6.962;2023-05-10T03:27:03;17.08;;;12.45;;
49978;SDS011;35869;50.990;6.962;2023-05-10T03:32:05;21.65;;;13.60;;
49978;SDS011;35869;50.990;6.962;2023-05-10T03:42:05;14.35;;;10.75;;
49978;SDS011;35869;50.990;6.962;2023-05-10T03:47:06;21.05;;;12.00;;
49978;SDS011;35869;50.990;6.962;2023-05-10T03:52:06;15.77;;;10.95;;
49978;SDS011;35869;50.990;6.962;2023-05-10T03:57:06;20.55;;;11.63;;
49978;SDS011;35869;50.990;6.962;2023-05-10T04:02:06;19.55;;;13.32;;
49978;SDS011;35869;50.990;6.962;2023-05-10T04:07:07;21.67;;;13.35;;
49978;SDS011;35869;50.990;6.962;2023-05-10T04:12:07;16.52;;;11.50;;
49978;SDS011;35869;50.990;6.962;2023-05-10T04:17:07;46.85;;;17.90;;
49978;SDS011;35869;50.990;6.962;2023-05-10T04:22:07;36.78;;;18.52;;
49978;SDS011;35869;50.990;6.962;2023-05-10T04:27:07;44.70;;;22.48;;
49978;SDS011;35869;50.990;6.962;2023-05-10T04:32:08;31.60;;;19.10;;
49978;SDS011;35869;50.990;6.962;2023-05-10T04:37:08;42.65;;;21.35;;
49978;SDS011;35869;50.990;6.962;2023-05-10T04:42:08;33.72;;;19.77;;
49978;SDS011;35869;50.990;6.962;2023-05-10T04:47:08;87.95;;;37.95;;
49978;SDS011;35869;50.990;6.962;2023-05-10T04:52:08;46.03;;;27.05;;
49978;SDS011;35869;50.990;6.962;2023-05-10T04:57:09;38.33;;;23.98;;
49978;SDS011;35869;50.990;6.962;2023-05-10T05:02:09;56.47;;;30.92;;
49978;SDS011;35869;50.990;6.962;2023-05-10T05:07:09;42.90;;;24.90;;
49978;SDS011;35869;50.990;6.962;2023-05-10T05:12:09;43.17;;;25.35;;
49978;SDS011;35869;50.990;6.962;2023-05-10T05:22:10;23.88;;;17.40;;
49978;SDS011;35869;50.990;6.962;2023-05-10T05:27:10;28.40;;;19.13;;
49978;SDS011;35869;50.990;6.962;2023-05-10T05:32:10;33.53;;;19.08;;
49978;SDS011;35869;50.990;6.962;2023-05-10T05:37:18;41.50;;;22.63;;
49978;SDS011;35869;50.990;6.962;2023-05-10T05:42:19;24.98;;;16.25;;
49978;SDS011;35869;50.990;6.962;2023-05-10T05:47:19;30.38;;;18.20;;
49978;SDS011;35869;50.990;6.962;2023-05-10T05:52:19;26.85;;;16.38;;
49978;SDS011;35869;50.990;6.962;2023-05-10T05:57:19;27.55;;;15.65;;
49978;SDS011;35869;50.990;6.962;2023-05-10T06:02:20;27.60;;;16.10;;
49978;SDS011;35869;50.990;6.962;2023-05-10T06:07:20;25.65;;;16.67;;
49978;SDS011;35869;50.990;6.962;2023-05-10T06:12:20;22.52;;;14.75;;
49978;SDS011;35869;50.990;6.962;2023-05-10T06:17:20;23.55;;;14.02;;
49978;SDS011;35869;50.990;6.962;2023-05-10T06:22:20;39.75;;;20.70;;
49978;SDS011;35869;50.990;6.962;2023-05-10T06:27:21;25.00;;;14.90;;
49978;SDS011;35869;50.990;6.962;2023-05-10T06:32:21;23.35;;;14.25;;
49978;SDS011;35869;50.990;6.962;2023-05-10T06:37:21;22.65;;;13.98;;
49978;SDS011;35869;50.990;6.962;2023-05-10T06:42:21;20.15;;;14.15;;
49978;SDS011;35869;50.990;6.962;2023-05-10T06:47:21;23.23;;;13.43;;
49978;SDS011;35869;50.990;6.962;2023-05-10T06:52:22;25.38;;;15.90;;
49978;SDS011;35869;50.990;6.962;2023-05-10T06:57:22;19.63;;;13.75;;
49978;SDS011;35869;50.990;6.962;2023-05-10T07:02:22;35.78;;;18.92;;
49978;SDS011;35869;50.990;6.962;2023-05-10T07:12:23;27.70;;;16.83;;
49978;SDS011;35869;50.990;6.962;2023-05-10T07:22:24;28.15;;;16.85;;
49978;SDS011;35869;50.990;6.962;2023-05-10T07:27:24;30.55;;;18.63;;
49978;SDS011;35869;50.990;6.962;2023-05-10T07:37:25;37.35;;;21.13;;
49978;SDS011;35869;50.990;6.962;2023-05-10T07:42:25;30.80;;;16.45;;
49978;SDS011;35869;50.990;6.962;2023-05-10T07:47:25;32.05;;;19.27;;
49978;SDS011;35869;50.990;6.962;2023-05-10T07:52:25;43.03;;;22.42;;
49978;SDS011;35869;50.990;6.962;2023-05-10T07:57:26;39.22;;;19.98;;
49978;SDS011;35869;50.990;6.962;2023-05-10T08:02:26;27.05;;;17.77;;
49978;SDS011;35869;50.990;6.962;2023-05-10T08:07:26;28.38;;;16.67;;
49978;SDS011;35869;50.990;6.962;2023-05-10T08:12:26;30.85;;;18.45;;
49978;SDS011;35869;50.990;6.962;2023-05-10T08:17:26;25.67;;;15.93;;
49978;SDS011;35869;50.990;6.962;2023-05-10T08:22:27;30.23;;;17.52;;
49978;SDS011;35869;50.990;6.962;2023-05-10T08:27:27;24.10;;;14.98;;
49978;SDS011;35869;50.990;6.962;2023-05-10T08:32:27;25.85;;;16.60;;
49978;SDS011;35869;50.990;6.962;2023-05-10T08:37:29;19.73;;;13.80;;
49978;SDS011;35869;50.990;6.962;2023-05-10T08:42:30;16.05;;;10.80;;
49978;SDS011;35869;50.990;6.962;2023-05-10T08:47:33;27.10;;;14.13;;
49978;SDS011;35869;50.990;6.962;2023-05-10T08:52:38;19.70;;;12.18;;
49978;SDS011;35869;50.990;6.962;2023-05-10T08:57:40;24.02;;;14.75;;
49978;SDS011;35869;50.990;6.962;2023-05-10T09:02:40;22.90;;;15.00;;
49978;SDS011;35869;50.990;6.962;2023-05-10T09:07:42;21.33;;;14.60;;
49978;SDS011;35869;50.990;6.962;2023-05-10T09:17:44;26.77;;;16.33;;
49978;SDS011;35869;50.990;6.962;2023-05-10T09:22:45;35.15;;;19.73;;
49978;SDS011;35869;50.990;6.962;2023-05-10T09:27:46;37.15;;;20.55;;
49978;SDS011;35869;50.990;6.962;2023-05-10T09:32:47;32.17;;;19.20;;
49978;SDS011;35869;50.990;6.962;2023-05-10T09:42:54;33.72;;;20.17;;
49978;SDS011;35869;50.990;6.962;2023-05-10T09:47:56;30.75;;;18.63;;
49978;SDS011;35869;50.990;6.962;2023-05-10T09:57:58;27.70;;;15.98;;
49978;SDS011;35869;50.990;6.962;2023-05-10T10:03:00;28.13;;;15.43;;
49978;SDS011;35869;50.990;6.962;2023-05-10T10:08:04;19.92;;;13.93;;
49978;SDS011;35869;50.990;6.962;2023-05-10T10:13:05;17.85;;;12.40;;
49978;SDS011;35869;50.990;6.962;2023-05-10T10:23:07;15.93;;;11.15;;
49978;SDS011;35869;50.990;6.962;2023-05-10T10:28:11;16.92;;;11.50;;
49978;SDS011;35869;50.990;6.962;2023-05-10T10:33:51;21.98;;;13.77;;
49978;SDS011;35869;50.990;6.962;2023-05-10T10:38:59;16.50;;;10.05;;
49978;SDS011;35869;50.990;6.962;2023-05-10T10:49:24;12.90;;;9.52;;
49978;SDS011;35869;50.990;6.962;2023-05-10T10:59:28;13.23;;;9.40;;
49978;SDS011;35869;50.990;6.962;2023-05-10T11:04:28;17.15;;;11.18;;
49978;SDS011;35869;50.990;6.962;2023-05-10T11:09:28;17.30;;;8.13;;
49978;SDS011;35869;50.990;6.962;2023-05-10T11:14:39;11.85;;;8.02;;
49978;SDS011;35869;50.990;6.962;2023-05-10T11:19:57;8.05;;;6.65;;
49978;SDS011;35869;50.990;6.962;2023-05-10T11:25:06;9.02;;;6.72;;
49978;SDS011;35869;50.990;6.962;2023-05-10T11:30:07;8.13;;;6.00;;
49978;SDS011;35869;50.990;6.962;2023-05-10T11:35:09;7.78;;;5.50;;
49978;SDS011;35869;50.990;6.962;2023-05-10T11:40:11;8.48;;;6.00;;
49978;SDS011;35869;50.990;6.962;2023-05-10T11:45:11;7.73;;;5.37;;
49978;SDS011;35869;50.990;6.962;2023-05-10T11:50:12;5.17;;;4.10;;
49978;SDS011;35869;50.990;6.962;2023-05-10T11:55:12;4.80;;;3.55;;
49978;SDS011;35869;50.990;6.962;2023-05-10T12:00:13;5.77;;;3.47;;
49978;SDS011;35869;50.990;6.962;2023-05-10T12:05:14;3.25;;;1.98;;
49978;SDS011;35869;50.990;6.962;2023-05-10T12:10:14;2.72;;;1.95;;
49978;SDS011;35869;50.990;6.962;2023-05-10T12:15:19;3.63;;;2.80;;
49978;SDS011;35869;50.990;6.962;2023-05-10T12:20:21;3.85;;;2.53;;
49978;SDS011;35869;50.990;6.962;2023-05-10T12:25:23;2.42;;;2.22;;
49978;SDS011;35869;50.990;6.962;2023-05-10T12:30:29;2.72;;;2.40;;
49978;SDS011;35869;50.990;6.962;2023-05-10T12:35:31;3.22;;;2.15;;
49978;SDS011;35869;50.990;6.962;2023-05-10T12:40:32;2.88;;;2.42;;
49978;SDS011;35869;50.990;6.962;2023-05-10T12:45:32;3.63;;;2.53;;
49978;SDS011;35869;50.990;6.962;2023-05-10T12:50:32;2.60;;;2.30;;
49978;SDS011;35869;50.990;6.962;2023-05-10T12:55:33;3.60;;;2.03;;
49978;SDS011;35869;50.990;6.962;2023-05-10T13:00:33;2.70;;;1.97;;
49978;SDS011;35869;50.990;6.962;2023-05-10T13:05:33;2.23;;;1.80;;
49978;SDS011;35869;50.990;6.962;2023-05-10T13:10:34;3.03;;;2.35;;
49978;SDS011;35869;50.990;6.962;2023-05-10T13:15:34;3.13;;;2.47;;
49978;SDS011;35869;50.990;6.962;2023-05-10T13:20:34;2.88;;;2.30;;
49978;SDS011;35869;50.990;6.962;2023-05-10T13:25:35;2.47;;;1.88;;
49978;SDS011;35869;50.990;6.962;2023-05-10T13:30:35;1.70;;;1.60;;
49978;SDS011;35869;50.990;6.962;2023-05-10T13:35:35;2.58;;;1.23;;
49978;SDS011;35869;50.990;6.962;2023-05-10T13:40:35;3.10;;;1.75;;
49978;SDS011;35869;50.990;6.962;2023-05-10T13:45:36;2.00;;;1.73;;
49978;SDS011;35869;50.990;6.962;2023-05-10T13:50:36;3.05;;;1.50;;
49978;SDS011;35869;50.990;6.962;2023-05-10T13:55:36;1.67;;;0.98;;
49978;SDS011;35869;50.990;6.962;2023-05-10T14:00:36;1.98;;;1.33;;
49978;SDS011;35869;50.990;6.962;2023-05-10T14:05:36;1.80;;;1.58;;
49978;SDS011;35869;50.990;6.962;2023-05-10T14:10:37;3.08;;;1.73;;
49978;SDS011;35869;50.990;6.962;2023-05-10T14:15:37;2.08;;;1.40;;
49978;SDS011;35869;50.990;6.962;2023-05-10T14:20:37;2.00;;;1.43;;
49978;SDS011;35869;50.990;6.962;2023-05-10T14:25:39;2.08;;;1.25;;
49978;SDS011;35869;50.990;6.962;2023-05-10T14:30:40;4.40;;;1.42;;
49978;SDS011;35869;50.990;6.962;2023-05-10T14:35:40;1.95;;;1.17;;
49978;SDS011;35869;50.990;6.962;2023-05-10T14:40:40;1.52;;;1.33;;
49978;SDS011;35869;50.990;6.962;2023-05-10T14:45:41;1.65;;;1.40;;
49978;SDS011;35869;50.990;6.962;2023-05-10T14:50:41;3.10;;;1.48;;
49978;SDS011;35869;50.990;6.962;2023-05-10T14:55:41;1.35;;;1.25;;
49978;SDS011;35869;50.990;6.962;2023-05-10T15:00:41;8.50;;;6.77;;
49978;SDS011;35869;50.990;6.962;2023-05-10T15:05:42;10.33;;;7.90;;
49978;SDS011;35869;50.990;6.962;2023-05-10T15:10:42;9.13;;;6.63;;
49978;SDS011;35869;50.990;6.962;2023-05-10T15:15:42;8.57;;;6.72;;
49978;SDS011;35869;50.990;6.962;2023-05-10T15:20:42;8.20;;;5.53;;
49978;SDS011;35869;50.990;6.962;2023-05-10T15:25:43;4.35;;;3.58;;
49978;SDS011;35869;50.990;6.962;2023-05-10T15:30:43;6.20;;;4.20;;
49978;SDS011;35869;50.990;6.962;2023-05-10T15:35:43;10.13;;;4.78;;
49978;SDS011;35869;50.990;6.962;2023-05-10T15:40:43;5.95;;;4.90;;
49978;SDS011;35869;50.990;6.962;2023-05-10T15:45:43;5.10;;;2.73;;
49978;SDS011;35869;50.990;6.962;2023-05-10T15:50:44;7.18;;;4.88;;
49978;SDS011;35869;50.990;6.962;2023-05-10T15:55:44;4.47;;;3.78;;
49978;SDS011;35869;50.990;6.962;2023-05-10T16:00:44;6.30;;;3.33;;
49978;SDS011;35869;50.990;6.962;2023-05-10T16:05:44;3.08;;;2.00;;
49978;SDS011;35869;50.990;6.962;2023-05-10T16:10:44;1.98;;;1.48;;
49978;SDS011;35869;50.990;6.962;2023-05-10T16:15:45;3.78;;;1.83;;
49978;SDS011;35869;50.990;6.962;2023-05-10T16:20:45;1.63;;;1.10;;
49978;SDS011;35869;50.990;6.962;2023-05-10T16:25:45;2.78;;;1.60;;
49978;SDS011;35869;50.990;6.962;2023-05-10T16:30:46;2.13;;;1.63;;
49978;SDS011;35869;50.990;6.962;2023-05-10T16:35:46;2.45;;;1.58;;
49978;SDS011;35869;50.990;6.962;2023-05-10T16:40:46;4.05;;;2.05;;
49978;SDS011;35869;50.990;6.962;2023-05-10T16:45:47;8.93;;;1.90;;
49978;SDS011;35869;50.990;6.962;2023-05-10T16:50:47;2.28;;;1.30;;
49978;SDS011;35869;50.990;6.962;2023-05-10T16:55:47;2.78;;;1.20;;
49978;SDS011;35869;50.990;6.962;2023-05-10T17:00:47;1.90;;;1.10;;
49978;SDS011;35869;50.990;6.962;2023-05-10T17:05:48;0.97;;;0.77;;
49978;SDS011;35869;50.990;6.962;2023-05-10T17:10:48;1.77;;;1.03;;
49978;SDS011;35869;50.990;6.962;2023-05-10T17:15:48;1.30;;;1.17;;
49978;SDS011;35869;50.990;6.962;2023-05-10T17:20:49;1.13;;;1.00;;
49978;SDS011;35869;50.990;6.962;2023-05-10T17:25:49;3.28;;;1.80;;
49978;SDS011;35869;50.990;6.962;2023-05-10T17:30:56;2.07;;;1.53;;
49978;SDS011;35869;50.990;6.962;2023-05-10T17:35:56;1.65;;;1.50;;
49978;SDS011;35869;50.990;6.962;2023-05-10T17:40:56;2.30;;;1.57;;
49978;SDS011;35869;50.990;6.962;2023-05-10T17:45:57;2.30;;;1.70;;
49978;SDS011;35869;50.990;6.962;2023-05-10T17:50:57;1.80;;;1.37;;
49978;SDS011;35869;50.990;6.962;2023-05-10T17:55:57;2.20;;;1.73;;
49978;SDS011;35869;50.990;6.962;2023-05-10T18:00:57;4.00;;;3.33;;
49978;SDS011;35869;50.990;6.962;2023-05-10T18:05:57;5.35;;;4.18;;
49978;SDS011;35869;50.990;6.962;2023-05-10T18:10:58;10.70;;;7.10;;
49978;SDS011;35869;50.990;6.962;2023-05-10T18:15:58;5.87;;;3.90;;
49978;SDS011;35869;50.990;6.962;2023-05-10T18:20:58;10.57;;;7.27;;
49978;SDS011;35869;50.990;6.962;2023-05-10T18:25:58;8.02;;;5.20;;
49978;SDS011;35869;50.990;6.962;2023-05-10T18:30:59;6.77;;;3.93;;
49978;SDS011;35869;50.990;6.962;2023-05-10T18:35:59;4.70;;;4.00;;
49978;SDS011;35869;50.990;6.962;2023-05-10T18:40:59;5.68;;;3.28;;
49978;SDS011;35869;50.990;6.962;2023-05-10T18:45:59;5.43;;;4.03;;
49978;SDS011;35869;50.990;6.962;2023-05-10T18:50:59;4.10;;;3.67;;
49978;SDS011;35869;50.990;6.962;2023-05-10T18:56:00;6.03;;;4.63;;
49978;SDS011;35869;50.990;6.962;2023-05-10T19:01:00;4.97;;;4.47;;
49978;SDS011;35869;50.990;6.962;2023-05-10T19:06:00;7.90;;;6.13;;
49978;SDS011;35869;50.990;6.962;2023-05-10T19:11:00;9.80;;;7.47;;
49978;SDS011;35869;50.990;6.962;2023-05-10T19:16:01;9.85;;;7.22;;
49978;SDS011;35869;50.990;6.962;2023-05-10T19:21:09;9.98;;;7.82;;
49978;SDS011;35869;50.990;6.962;2023-05-10T19:26:09;10.00;;;7.83;;
49978;SDS011;35869;50.990;6.962;2023-05-10T19:36:10;10.95;;;7.45;;
49978;SDS011;35869;50.990;6.962;2023-05-10T19:41:11;8.43;;;7.17;;
49978;SDS011;35869;50.990;6.962;2023-05-10T19:46:11;9.57;;;7.43;;
49978;SDS011;35869;50.990;6.962;2023-05-10T19:51:11;9.40;;;8.13;;
49978;SDS011;35869;50.990;6.962;2023-05-10T19:56:11;8.98;;;7.72;;
49978;SDS011;35869;50.990;6.962;2023-05-10T20:06:12;12.15;;;9.52;;
49978;SDS011;35869;50.990;6.962;2023-05-10T20:11:13;15.95;;;10.35;;
49978;SDS011;35869;50.990;6.962;2023-05-10T20:16:13;11.75;;;8.43;;
49978;SDS011;35869;50.990;6.962;2023-05-10T20:21:13;15.77;;;11.18;;
49978;SDS011;35869;50.990;6.962;2023-05-10T20:26:14;17.27;;;10.80;;
49978;SDS011;35869;50.990;6.962;2023-05-10T20:31:14;13.93;;;10.10;;
49978;SDS011;35869;50.990;6.962;2023-05-10T20:36:14;12.70;;;9.18;;
49978;SDS011;35869;50.990;6.962;2023-05-10T20:46:15;17.27;;;10.38;;
49978;SDS011;35869;50.990;6.962;2023-05-10T20:51:15;17.67;;;12.20;;
49978;SDS011;35869;50.990;6.962;2023-05-10T20:56:15;14.00;;;10.30;;
49978;SDS011;35869;50.990;6.962;2023-05-10T21:01:15;16.02;;;12.15;;
49978;SDS011;35869;50.990;6.962;2023-05-10T21:06:15;17.73;;;11.25;;
49978;SDS011;35869;50.990;6.962;2023-05-10T21:11:16;19.88;;;13.35;;
49978;SDS011;35869;50.990;6.962;2023-05-10T21:16:16;13.65;;;10.00;;
49978;SDS011;35869;50.990;6.962;2023-05-10T21:21:16;13.15;;;9.23;;
49978;SDS011;35869;50.990;6.962;2023-05-10T21:26:16;13.07;;;9.63;;
49978;SDS011;35869;50.990;6.962;2023-05-10T21:31:16;10.45;;;8.40;;
49978;SDS011;35869;50.990;6.962;2023-05-10T21:36:17;12.13;;;8.45;;
49978;SDS011;35869;50.990;6.962;2023-05-10T21:41:17;12.10;;;9.55;;
49978;SDS011;35869;50.990;6.962;2023-05-10T21:46:17;13.02;;;10.43;;
49978;SDS011;35869;50.990;6.962;2023-05-10T21:51:17;14.70;;;10.48;;
49978;SDS011;35869;50.990;6.962;2023-05-10T22:01:18;12.38;;;9.45;;
49978;SDS011;35869;50.990;6.962;2023-05-10T22:06:18;10.18;;;8.93;;
49978;SDS011;35869;50.990;6.962;2023-05-10T22:11:18;12.82;;;9.30;;
49978;SDS011;35869;50.990;6.962;2023-05-10T22:16:18;14.40;;;9.80;;
49978;SDS011;35869;50.990;6.962;2023-05-10T22:21:19;13.23;;;10.18;;
49978;SDS011;35869;50.990;6.962;2023-05-10T22:31:19;16.25;;;11.93;;
49978;SDS011;35869;50.990;6.962;2023-05-10T22:36:20;13.60;;;10.65;;
49978;SDS011;35869;50.990;6.962;2023-05-10T22:41:23;14.18;;;10.07;;
49978;SDS011;35869;50.990;6.962;2023-05-10T22:46:23;16.42;;;11.82;;
49978;SDS011;35869;50.990;6.962;2023-05-10T22:51:23;18.02;;;12.18;;
49978;SDS011;35869;50.990;6.962;2023-05-10T22:56:23;13.23;;;10.98;;
49978;SDS011;35869;50.990;6.962;2023-05-10T23:06:24;17.80;;;13.35;;
49978;SDS011;35869;50.990;6.962;2023-05-10T23:11:24;18.67;;;13.65;;
49978;SDS011;35869;50.990;6.962;2023-05-10T23:21:25;26.17;;;18.15;;
49978;SDS011;35869;50.990;6.962;2023-05-10T23:26:25;37.70;;;22.13;;
49978;SDS011;35869;50.990;6.962;2023-05-10T23:31:25;26.02;;;17.05;;
49978;SDS011;35869;50.990;6.962;2023-05-10T23:41:26;22.67;;;15.38;;
49978;SDS011;35869;50.990;6.962;2023-05-10T23:46:26;20.40;;;14.35;;
49978;SDS011;35869;50.990;6.962;2023-05-10T23:56:27;14.40;;;9.75;;
